createdAt,value
2018-05-11T11:48:30.657Z,98.97
2018-05-11T11:58:55.771Z,101.73
2018-05-11T12:01:39.316Z,98.47
2018-05-11T12:05:22.449Z,101.74
2018-05-11T12:13:49.578Z,100.17
2018-05-11T12:20:01.704Z,99.74
2018-05-11T12:25:01.707Z,98.41
2018-05-11T12:30:01.724Z,98.19
2018-05-11T12:35:01.922Z,102.24
2018-05-11T12:40:01.726Z,101.13
2018-05-11T12:45:01.748Z,104.26
2018-05-11T12:50:01.726Z,106.41
2018-05-11T12:55:01.750Z,101.71
2018-05-11T13:00:01.784Z,97.73
2018-05-11T13:05:01.726Z,100.59
2018-05-11T13:10:01.741Z,99.75
2018-05-11T13:15:01.758Z,99.27
2018-05-11T13:20:01.750Z,101.23
2018-05-11T13:25:01.736Z,99
2018-05-11T13:30:01.759Z,97.04
2018-05-11T13:35:01.750Z,95.5
2018-05-11T13:40:01.746Z,101.76
2018-05-11T13:45:01.752Z,96.72
2018-05-11T13:50:01.752Z,95.6
2018-05-11T13:55:01.752Z,97.59
2018-05-11T14:00:01.764Z,102.94
2018-05-11T14:05:01.784Z,97.96
2018-05-11T14:10:01.766Z,94.62
2018-05-11T14:15:01.773Z,94.32
2018-05-11T14:20:01.792Z,91.38
2018-05-11T14:25:02.168Z,92.94
2018-05-11T14:30:01.788Z,89.11
2018-05-11T14:35:01.792Z,92.29
2018-05-11T14:40:01.774Z,89.76
2018-05-11T14:45:01.791Z,88.92
2018-05-11T14:50:01.805Z,90.12
2018-05-11T14:55:01.807Z,91.78
2018-05-11T15:00:01.814Z,92.57
2018-05-11T15:05:01.821Z,91.06
2018-05-11T15:10:01.981Z,90.02
2018-05-11T15:15:01.801Z,93.48
2018-05-11T15:20:01.805Z,92.59
2018-05-11T15:25:01.800Z,96.35
2018-05-11T15:30:01.805Z,97.1
2018-05-11T15:35:01.812Z,95.67
2018-05-11T15:40:01.812Z,95.02
2018-05-11T15:45:01.808Z,95.44
2018-05-11T15:50:01.833Z,97.43
2018-05-11T15:55:01.809Z,96.59
2018-05-11T16:00:01.823Z,98.08
2018-05-11T16:05:01.831Z,98.78
2018-05-11T16:10:01.826Z,98.56
2018-05-11T16:15:01.824Z,97.45
2018-05-11T16:20:01.828Z,99.43
2018-05-11T16:25:01.949Z,100.06
2018-05-11T16:30:01.825Z,102.26
2018-05-11T16:35:01.835Z,102.94
2018-05-11T16:40:01.869Z,102.8
2018-05-11T16:45:01.849Z,103.03
2018-05-11T16:50:01.973Z,102.29
2018-05-11T16:55:01.856Z,102.91
2018-05-11T17:00:01.857Z,104.43
2018-05-11T17:05:01.849Z,104.1
2018-05-11T17:10:01.879Z,103.26
2018-05-11T17:15:01.855Z,104.44
2018-05-11T17:20:01.860Z,104.12
2018-05-11T17:25:01.871Z,104.9
2018-05-11T17:30:02.086Z,105
2018-05-11T17:35:01.871Z,105.82
2018-05-11T17:40:01.868Z,105.66
2018-05-11T17:45:01.899Z,107.06
2018-05-11T17:50:01.986Z,108.09
2018-05-11T17:55:01.881Z,108.98
2018-05-11T18:00:01.892Z,108.37
2018-05-11T18:05:01.879Z,108.97
2018-05-11T18:10:02.036Z,109.96
2018-05-11T18:15:01.894Z,110.39
2018-05-11T18:20:01.899Z,111.31
2018-05-11T18:25:01.899Z,111.18
2018-05-11T18:30:01.931Z,110.99
2018-05-11T18:35:01.914Z,112.48
2018-05-11T18:40:01.907Z,112.67
2018-05-11T18:45:01.933Z,113.63
2018-05-11T18:50:01.914Z,113.93
2018-05-11T18:55:01.928Z,115.9
2018-05-11T19:00:01.938Z,117.49
2018-05-11T19:05:01.960Z,116.71
2018-05-11T19:10:01.913Z,117.54
2018-05-11T19:15:02.010Z,117.8
2018-05-11T19:20:01.936Z,118.7
2018-05-11T19:25:01.934Z,119
2018-05-11T19:30:01.965Z,119
2018-05-11T19:35:01.948Z,119
2018-05-11T19:40:01.950Z,119
2018-05-11T19:45:01.981Z,119
2018-05-11T19:50:01.945Z,119
2018-05-11T19:55:01.955Z,119
2018-05-11T20:00:01.956Z,119
2018-05-11T20:05:02.058Z,119
2018-05-11T20:10:02.155Z,119
2018-05-11T20:15:02.027Z,119
2018-05-11T20:20:01.992Z,119
2018-05-11T20:25:02.269Z,119
2018-05-11T20:30:01.990Z,119
2018-05-11T20:35:01.990Z,119
2018-05-11T20:40:01.968Z,119
2018-05-11T20:45:02.001Z,119
2018-05-11T20:50:02.026Z,119
2018-05-11T20:55:01.989Z,119
2018-05-11T21:00:02.013Z,119
2018-05-11T21:05:02.022Z,119
2018-05-11T21:10:01.995Z,119
2018-05-11T21:15:02.004Z,119
2018-05-11T21:20:02.029Z,119
2018-05-11T21:25:01.995Z,119
2018-05-11T21:30:02.026Z,119
2018-05-11T21:33:10.544Z,119
2018-05-11T21:33:21.731Z,119
2018-05-11T21:35:02.006Z,119
2018-05-11T21:40:02.021Z,119
2018-05-11T21:45:02.024Z,111.81
2018-05-11T21:50:02.033Z,119
2018-05-11T21:55:02.032Z,119
2018-05-11T21:56:08.858Z,119
2018-05-11T22:00:02.117Z,119
2018-05-11T22:03:58.979Z,119
2018-05-11T22:05:02.051Z,119
2018-05-11T22:06:48.098Z,119
2018-05-11T22:10:02.030Z,119
2018-05-11T22:15:02.029Z,119
2018-05-11T22:20:02.036Z,119
2018-05-11T22:25:02.053Z,119
2018-05-11T22:30:02.048Z,119
2018-05-11T22:35:02.042Z,119
2018-05-11T22:40:02.053Z,119
2018-05-11T22:45:02.047Z,119
2018-05-11T22:50:02.064Z,119
2018-05-11T22:55:02.050Z,119
2018-05-11T23:00:02.058Z,119
2018-05-11T23:05:02.050Z,119
2018-05-11T23:10:02.215Z,119
2018-05-11T23:15:02.059Z,119
2018-05-11T23:20:02.079Z,119
2018-05-11T23:25:02.071Z,119
2018-05-11T23:30:02.059Z,119
2018-05-11T23:35:02.213Z,119
2018-05-11T23:40:02.072Z,119
2018-05-11T23:45:02.095Z,119
2018-05-11T23:50:02.075Z,119
2018-05-11T23:55:02.083Z,119
